Time;durP1;ratioP1;P1;durP2;ratioP2;P2;SDS_P1;SDS_P2;PMS_P1;PMS_P2;Temp;Humidity;BMP_temperature;BMP_pressure;BME280_temperature;BME280_humidity;BME280_pressure;Samples;Min_cycle;Max_cycle;Signal;HPM_P1;HPM_P2
2023/01/21 00:00:42;;;;;;;80.72;19.45;;;;;;;;;;5072518;28;20227;-69
2023/01/21 00:03:09;;;;;;;80.80;19.00;;;;;;;;;;5073063;28;20225;-69
2023/01/21 00:05:36;;;;;;;77.30;18.67;;;;;;;;;;5073020;28;20299;-69
2023/01/21 00:08:03;;;;;;;78.90;19.00;;;;;;;;;;5072781;28;20205;-69
2023/01/21 00:10:31;;;;;;;78.07;19.20;;;;;;;;;;5072525;28;20205;-69
2023/01/21 00:12:59;;;;;;;79.40;19.85;;;;;;;;;;5072608;28;20709;-69
2023/01/21 00:15:26;;;;;;;80.82;18.60;;;;;;;;;;5072872;28;20205;-69
2023/01/21 00:17:53;;;;;;;77.70;17.67;;;;;;;;;;5072776;28;20554;-69
2023/01/21 00:20:20;;;;;;;79.68;19.02;;;;;;;;;;5071938;28;20201;-69
2023/01/21 00:22:47;;;;;;;78.40;18.92;;;;;;;;;;5072425;28;20229;-68
2023/01/21 00:25:15;;;;;;;79.00;18.17;;;;;;;;;;5072651;28;20209;-68
2023/01/21 00:27:43;;;;;;;78.55;19.58;;;;;;;;;;5072472;28;20223;-69
2023/01/21 00:30:11;;;;;;;76.50;17.95;;;;;;;;;;5071796;28;20212;-69
2023/01/21 00:32:38;;;;;;;75.53;18.08;;;;;;;;;;5072520;28;20231;-69
2023/01/21 00:35:06;;;;;;;79.95;18.42;;;;;;;;;;5072212;28;20217;-70
2023/01/21 00:37:33;;;;;;;78.25;18.77;;;;;;;;;;5072571;28;20695;-69
2023/01/21 00:40:00;;;;;;;76.40;18.10;;;;;;;;;;5071709;28;20205;-69
2023/01/21 00:42:27;;;;;;;79.57;18.40;;;;;;;;;;5072243;28;20232;-69
2023/01/21 00:44:56;;;;;;;74.30;17.77;;;;;;;;;;5072265;28;20206;-69
2023/01/21 00:47:23;;;;;;;78.35;17.17;;;;;;;;;;5072285;28;20638;-68
2023/01/21 00:49:50;;;;;;;78.88;18.00;;;;;;;;;;5071165;28;20205;-69
2023/01/21 00:52:17;;;;;;;81.35;19.73;;;;;;;;;;5071967;28;20231;-69
2023/01/21 00:54:44;;;;;;;75.93;18.25;;;;;;;;;;5071895;28;20685;-69
2023/01/21 00:57:12;;;;;;;75.50;16.95;;;;;;;;;;5072300;28;20216;-69
2023/01/21 00:59:39;;;;;;;76.63;16.90;;;;;;;;;;5071330;28;20213;-69
2023/01/21 01:02:08;;;;;;;78.10;19.23;;;;;;;;;;5071883;28;20208;-69
2023/01/21 01:04:35;;;;;;;85.05;17.67;;;;;;;;;;5071989;28;20704;-69
2023/01/21 01:07:02;;;;;;;82.70;20.10;;;;;;;;;;5072075;28;20201;-69
2023/01/21 01:09:29;;;;;;;76.47;17.98;;;;;;;;;;5070846;28;20209;-69
2023/01/21 01:11:57;;;;;;;77.63;18.70;;;;;;;;;;5071689;28;20665;-69
2023/01/21 01:14:24;;;;;;;76.70;17.98;;;;;;;;;;5071732;28;20221;-69
2023/01/21 01:16:51;;;;;;;76.97;16.48;;;;;;;;;;5071909;28;20355;-69
2023/01/21 01:19:19;;;;;;;77.55;17.80;;;;;;;;;;5071261;28;20470;-68
2023/01/21 01:21:47;;;;;;;78.40;18.80;;;;;;;;;;5071828;28;20202;-69
2023/01/21 01:24:14;;;;;;;78.05;18.23;;;;;;;;;;5071819;28;20236;-69
2023/01/21 01:26:41;;;;;;;82.30;17.98;;;;;;;;;;5071580;28;20208;-69
2023/01/21 01:29:08;;;;;;;76.18;16.90;;;;;;;;;;5070911;28;20236;-69
2023/01/21 01:31:35;;;;;;;75.60;17.80;;;;;;;;;;5071558;28;20212;-69
2023/01/21 01:34:02;;;;;;;76.57;17.02;;;;;;;;;;5071843;28;20240;-68
2023/01/21 01:36:31;;;;;;;76.25;16.85;;;;;;;;;;5071672;28;20208;-68
2023/01/21 01:38:58;;;;;;;77.78;16.77;;;;;;;;;;5070727;28;20688;-69
2023/01/21 01:41:28;;;;;;;78.10;17.70;;;;;;;;;;5071741;28;20205;-70
2023/01/21 01:43:57;;;;;;;74.82;16.92;;;;;;;;;;5071338;28;20636;-69
2023/01/21 01:46:25;;;;;;;79.15;17.35;;;;;;;;;;5071659;28;20247;-68
2023/01/21 01:48:55;;;;;;;75.25;17.40;;;;;;;;;;5070857;28;20208;-69
2023/01/21 01:51:25;;;;;;;80.75;17.50;;;;;;;;;;5071637;28;20209;-69
2023/01/21 01:53:54;;;;;;;75.88;16.73;;;;;;;;;;5071402;28;20239;-69
2023/01/21 01:56:22;;;;;;;78.18;18.30;;;;;;;;;;5071267;28;20401;-69
2023/01/21 01:58:49;;;;;;;86.88;17.52;;;;;;;;;;5070555;28;20209;-68
2023/01/21 02:01:16;;;;;;;77.85;17.25;;;;;;;;;;5071559;28;20205;-69
2023/01/21 02:03:44;;;;;;;79.20;18.02;;;;;;;;;;5071243;28;20235;-69
2023/01/21 02:06:12;;;;;;;72.93;16.17;;;;;;;;;;5071366;28;20215;-68
2023/01/21 02:08:39;;;;;;;81.75;18.80;;;;;;;;;;5070509;28;20205;-68
2023/01/21 02:11:11;;;;;;;77.93;16.30;;;;;;;;;;5071092;28;20688;-69
2023/01/21 02:13:38;;;;;;;76.15;16.90;;;;;;;;;;5071318;28;20225;-69
2023/01/21 02:16:13;;;;;;;83.85;18.15;;;;;;;;;;5071194;28;20698;-69
2023/01/21 02:18:43;;;;;;;79.03;17.65;;;;;;;;;;5070368;28;20205;-69
2023/01/21 02:21:29;;;;;;;82.07;17.38;;;;;;;;;;5071236;28;20209;-68
2023/01/21 02:24:23;;;;;;;77.00;16.65;;;;;;;;;;5074935;28;20592;-69
2023/01/21 02:27:24;;;;;;;77.95;17.65;;;;;;;;;;5039175;28;20205;-69
2023/01/21 02:30:09;;;;;;;78.10;16.20;;;;;;;;;;5073909;28;20215;-69
2023/01/21 02:32:54;;;;;;;77.82;17.70;;;;;;;;;;5074860;28;20634;-68
2023/01/21 02:35:25;;;;;;;77.20;16.40;;;;;;;;;;5074430;28;20278;-69
2023/01/21 02:37:55;;;;;;;79.15;18.75;;;;;;;;;;5074737;28;20208;-69
2023/01/21 02:40:26;;;;;;;79.07;18.95;;;;;;;;;;5073764;28;20590;-69
2023/01/21 02:43:00;;;;;;;77.82;17.85;;;;;;;;;;5074695;28;20251;-69
2023/01/21 02:45:30;;;;;;;82.80;19.20;;;;;;;;;;5071118;28;20209;-69
2023/01/21 02:48:04;;;;;;;76.55;17.98;;;;;;;;;;5074240;28;20209;-69
2023/01/21 02:50:34;;;;;;;77.65;17.85;;;;;;;;;;5073499;28;20677;-69
2023/01/21 02:53:03;;;;;;;82.90;17.95;;;;;;;;;;5074245;28;20312;-69
2023/01/21 02:55:31;;;;;;;79.05;17.48;;;;;;;;;;5074150;28;20231;-69
2023/01/21 02:57:59;;;;;;;78.60;18.15;;;;;;;;;;5074230;28;20201;-69
2023/01/21 03:00:28;;;;;;;78.15;16.90;;;;;;;;;;5073492;28;20564;-69
2023/01/21 03:03:10;;;;;;;83.18;18.08;;;;;;;;;;5074374;28;20225;-70
2023/01/21 03:05:45;;;;;;;78.43;16.58;;;;;;;;;;5073756;28;20224;-69
2023/01/21 03:08:17;;;;;;;80.55;17.10;;;;;;;;;;5074210;28;20215;-68
2023/01/21 03:10:49;;;;;;;83.10;17.23;;;;;;;;;;5073229;28;20669;-69
2023/01/21 03:16:55;;;;;;;81.78;19.40;;;;;;;;;;5074191;28;20230;-69
2023/01/21 03:18:58;;;;;;;78.13;17.45;;;;;;;;;;5055480;28;20205;-69
2023/01/21 03:21:27;;;;;;;75.95;16.52;;;;;;;;;;5074291;28;20315;-69
2023/01/21 03:23:55;;;;;;;81.20;17.48;;;;;;;;;;5074098;28;20225;-69
2023/01/21 03:26:26;;;;;;;78.45;18.08;;;;;;;;;;5073896;28;20209;-68
2023/01/21 03:28:55;;;;;;;79.55;18.65;;;;;;;;;;5073015;28;20201;-68
2023/01/21 03:31:24;;;;;;;81.45;17.80;;;;;;;;;;5073712;28;20568;-69
2023/01/21 03:33:53;;;;;;;75.80;16.17;;;;;;;;;;5073069;28;20717;-68
2023/01/21 03:36:24;;;;;;;74.90;17.65;;;;;;;;;;5073757;28;20202;-69
2023/01/21 03:38:53;;;;;;;77.30;17.08;;;;;;;;;;5072837;28;20212;-69
2023/01/21 03:41:22;;;;;;;80.93;18.08;;;;;;;;;;5073631;28;20205;-69
2023/01/21 03:43:49;;;;;;;77.93;18.15;;;;;;;;;;5073394;28;20236;-68
2023/01/21 03:46:17;;;;;;;78.50;16.63;;;;;;;;;;5073256;28;20485;-69
2023/01/21 03:48:48;;;;;;;77.10;16.58;;;;;;;;;;5072512;28;20689;-69
2023/01/21 03:51:17;;;;;;;77.88;18.38;;;;;;;;;;5073407;28;20209;-69
2023/01/21 03:53:44;;;;;;;75.45;16.08;;;;;;;;;;5073253;28;20751;-68
2023/01/21 03:56:12;;;;;;;78.78;16.70;;;;;;;;;;5073514;28;20661;-69
2023/01/21 03:58:39;;;;;;;75.80;16.05;;;;;;;;;;5072246;28;20209;-69
2023/01/21 04:01:07;;;;;;;77.70;17.60;;;;;;;;;;5073019;28;20211;-69
2023/01/21 04:03:34;;;;;;;79.68;18.63;;;;;;;;;;5073311;28;20236;-68
2023/01/21 04:06:01;;;;;;;81.43;16.50;;;;;;;;;;5072880;28;20331;-69
2023/01/21 04:08:28;;;;;;;78.25;17.65;;;;;;;;;;5072766;28;20205;-70
2023/01/21 04:10:55;;;;;;;79.43;18.52;;;;;;;;;;5072437;28;20207;-69
2023/01/21 04:13:24;;;;;;;81.35;16.00;;;;;;;;;;5072571;28;20576;-68
2023/01/21 04:15:51;;;;;;;79.97;17.38;;;;;;;;;;5072948;28;20201;-70
2023/01/21 04:18:18;;;;;;;80.25;17.92;;;;;;;;;;5072577;28;20220;-68
2023/01/21 04:20:46;;;;;;;75.70;16.50;;;;;;;;;;5072146;28;20592;-69
2023/01/21 04:23:13;;;;;;;76.05;17.90;;;;;;;;;;5072501;28;20236;-69
2023/01/21 04:25:41;;;;;;;76.70;16.40;;;;;;;;;;5072458;28;20701;-68
2023/01/21 04:28:08;;;;;;;77.28;17.30;;;;;;;;;;5072724;28;20296;-69
2023/01/21 04:30:37;;;;;;;82.43;19.40;;;;;;;;;;5071773;28;20208;-69
2023/01/21 04:33:04;;;;;;;82.68;18.05;;;;;;;;;;5072587;28;20227;-69
2023/01/21 04:35:31;;;;;;;78.25;16.77;;;;;;;;;;5072568;28;20197;-69
2023/01/21 04:37:58;;;;;;;75.25;16.50;;;;;;;;;;5072012;28;20212;-69
2023/01/21 04:40:25;;;;;;;76.40;17.48;;;;;;;;;;5071522;28;20673;-69
2023/01/21 04:42:52;;;;;;;77.28;17.45;;;;;;;;;;5072357;28;20220;-69
2023/01/21 04:45:19;;;;;;;75.50;16.17;;;;;;;;;;5071622;28;20235;-69
2023/01/21 04:47:48;;;;;;;82.43;18.35;;;;;;;;;;5072273;28;20212;-69
2023/01/21 04:50:15;;;;;;;77.63;17.40;;;;;;;;;;5071533;28;20205;-69
2023/01/21 04:52:43;;;;;;;74.30;15.30;;;;;;;;;;5071938;28;20221;-69
2023/01/21 04:55:10;;;;;;;78.18;16.70;;;;;;;;;;5071928;28;20699;-69
2023/01/21 04:57:38;;;;;;;72.47;15.25;;;;;;;;;;5072264;28;20211;-68
2023/01/21 05:00:06;;;;;;;76.47;16.88;;;;;;;;;;5063020;28;20201;-69
2023/01/21 05:02:33;;;;;;;75.72;17.00;;;;;;;;;;5051853;28;20234;-68
2023/01/21 05:05:02;;;;;;;78.25;16.33;;;;;;;;;;5051917;28;20568;-68
2023/01/21 05:07:29;;;;;;;81.30;17.48;;;;;;;;;;5051694;28;20206;-68
2023/01/21 05:09:56;;;;;;;77.32;17.67;;;;;;;;;;5051410;28;20213;-68
2023/01/21 05:12:23;;;;;;;77.40;17.63;;;;;;;;;;5051767;28;20744;-68
2023/01/21 05:14:53;;;;;;;79.93;17.02;;;;;;;;;;5051992;28;20198;-69
2023/01/21 05:17:20;;;;;;;79.70;17.58;;;;;;;;;;5051943;28;20267;-68
2023/01/21 05:19:47;;;;;;;79.00;17.80;;;;;;;;;;5051040;28;20210;-68
2023/01/21 05:22:16;;;;;;;75.97;16.30;;;;;;;;;;5051619;28;20226;-68
2023/01/21 05:24:43;;;;;;;83.43;18.00;;;;;;;;;;5051614;28;20603;-69
2023/01/21 05:27:10;;;;;;;77.30;17.23;;;;;;;;;;5051955;28;20220;-68
2023/01/21 05:29:37;;;;;;;77.50;17.42;;;;;;;;;;5050910;28;20689;-68
2023/01/21 05:32:04;;;;;;;81.13;17.90;;;;;;;;;;5051603;28;20206;-68
2023/01/21 05:34:31;;;;;;;76.20;16.95;;;;;;;;;;5051439;28;20206;-68
2023/01/21 05:36:58;;;;;;;80.03;18.10;;;;;;;;;;5051467;28;20589;-68
2023/01/21 05:39:27;;;;;;;77.50;16.63;;;;;;;;;;5049062;28;20206;-69
2023/01/21 05:41:54;;;;;;;77.95;16.60;;;;;;;;;;5049811;28;20206;-68
2023/01/21 05:44:21;;;;;;;78.40;17.38;;;;;;;;;;5049741;28;20690;-68
2023/01/21 05:46:48;;;;;;;75.00;16.95;;;;;;;;;;5049746;28;20233;-68
2023/01/21 05:49:15;;;;;;;79.35;17.50;;;;;;;;;;5048855;28;20202;-68
2023/01/21 05:51:42;;;;;;;80.75;17.67;;;;;;;;;;5049452;28;20209;-68
2023/01/21 05:54:09;;;;;;;77.97;17.02;;;;;;;;;;5051346;28;20253;-68
2023/01/21 05:56:38;;;;;;;87.20;19.88;;;;;;;;;;5053803;28;20208;-68
2023/01/21 05:59:06;;;;;;;75.28;15.82;;;;;;;;;;5054634;28;20206;-68
2023/01/21 06:01:33;;;;;;;78.75;17.45;;;;;;;;;;5055212;28;20267;-68
2023/01/21 06:04:00;;;;;;;73.60;16.77;;;;;;;;;;5055451;28;20228;-68
2023/01/21 06:06:27;;;;;;;77.90;16.90;;;;;;;;;;5055092;28;20221;-68
2023/01/21 06:08:54;;;;;;;77.25;17.20;;;;;;;;;;5054572;28;20365;-69
2023/01/21 06:11:21;;;;;;;77.70;18.15;;;;;;;;;;5055396;28;20210;-68
2023/01/21 06:13:50;;;;;;;78.90;17.15;;;;;;;;;;5055455;28;20228;-68
2023/01/21 06:16:17;;;;;;;74.85;15.32;;;;;;;;;;5054985;28;20202;-68
2023/01/21 06:18:44;;;;;;;77.78;17.90;;;;;;;;;;5054237;28;20213;-69
2023/01/21 06:21:11;;;;;;;79.30;15.18;;;;;;;;;;5055135;28;20205;-68
2023/01/21 06:23:38;;;;;;;78.05;16.92;;;;;;;;;;5054926;28;20232;-69
2023/01/21 06:26:06;;;;;;;73.47;15.77;;;;;;;;;;5054783;28;20815;-68
2023/01/21 06:28:33;;;;;;;76.25;15.80;;;;;;;;;;5054499;28;20212;-69
2023/01/21 06:31:01;;;;;;;78.47;17.10;;;;;;;;;;5054946;28;20201;-68
2023/01/21 06:33:28;;;;;;;78.68;17.08;;;;;;;;;;5054868;28;20228;-68
2023/01/21 06:35:56;;;;;;;75.82;16.73;;;;;;;;;;5054620;28;20233;-68
2023/01/21 06:38:24;;;;;;;78.80;17.35;;;;;;;;;;5054558;28;20711;-68
2023/01/21 06:40:51;;;;;;;74.18;14.90;;;;;;;;;;5053989;28;20686;-69
2023/01/21 06:43:18;;;;;;;77.30;16.35;;;;;;;;;;5054485;28;20230;-68
2023/01/21 06:45:45;;;;;;;76.97;16.48;;;;;;;;;;5054629;28;20226;-68
2023/01/21 06:48:14;;;;;;;77.38;16.90;;;;;;;;;;5054430;28;20757;-69
2023/01/21 06:50:41;;;;;;;82.07;19.05;;;;;;;;;;5053970;28;20206;-68
2023/01/21 06:53:08;;;;;;;74.60;15.63;;;;;;;;;;5054258;28;20226;-68
2023/01/21 06:55:35;;;;;;;76.75;17.10;;;;;;;;;;5054362;28;20224;-67
2023/01/21 06:58:02;;;;;;;75.75;16.85;;;;;;;;;;5054386;28;20209;-68
2023/01/21 07:00:29;;;;;;;76.57;15.75;;;;;;;;;;5053552;28;20209;-68
2023/01/21 07:02:57;;;;;;;76.68;15.80;;;;;;;;;;5054558;28;20233;-68
2023/01/21 07:05:25;;;;;;;74.40;15.60;;;;;;;;;;5054094;28;20229;-69
2023/01/21 07:07:54;;;;;;;76.05;15.95;;;;;;;;;;5053318;28;20205;-68
2023/01/21 07:10:21;;;;;;;76.03;16.70;;;;;;;;;;5053310;28;20210;-67
2023/01/21 07:12:48;;;;;;;78.28;16.60;;;;;;;;;;5054179;28;20233;-68
2023/01/21 07:15:15;;;;;;;83.10;17.45;;;;;;;;;;5054157;28;20579;-68
2023/01/21 07:17:42;;;;;;;80.90;18.02;;;;;;;;;;5054030;28;20205;-68
2023/01/21 07:20:11;;;;;;;75.97;15.95;;;;;;;;;;5053240;28;20213;-68
2023/01/21 07:22:39;;;;;;;78.97;18.20;;;;;;;;;;5053775;28;20317;-69
2023/01/21 07:25:07;;;;;;;79.78;18.00;;;;;;;;;;5053563;28;20217;-69
2023/01/21 07:27:34;;;;;;;77.90;16.23;;;;;;;;;;5053849;28;20221;-69
2023/01/21 07:30:01;;;;;;;75.57;15.43;;;;;;;;;;5053208;28;20206;-69
2023/01/21 07:32:28;;;;;;;80.53;16.10;;;;;;;;;;5053854;28;20229;-69
2023/01/21 07:34:55;;;;;;;77.43;16.90;;;;;;;;;;5053738;28;20213;-68
2023/01/21 07:37:22;;;;;;;79.70;17.70;;;;;;;;;;5053559;28;20705;-68
2023/01/21 07:39:51;;;;;;;78.50;21.65;;;;;;;;;;5052807;28;20206;-69
2023/01/21 07:42:18;;;;;;;80.05;20.67;;;;;;;;;;5053627;28;20605;-69
2023/01/21 07:44:45;;;;;;;80.97;18.60;;;;;;;;;;5053563;28;20289;-68
2023/01/21 07:47:12;;;;;;;79.13;18.63;;;;;;;;;;5053422;28;20229;-68
2023/01/21 07:49:39;;;;;;;83.43;19.70;;;;;;;;;;5052492;28;20236;-69
2023/01/21 07:52:06;;;;;;;84.68;20.95;;;;;;;;;;5052817;28;20245;-69
2023/01/21 07:54:33;;;;;;;82.63;19.98;;;;;;;;;;5053534;28;20580;-68
2023/01/21 07:57:02;;;;;;;83.80;22.40;;;;;;;;;;5053628;28;20209;-68
2023/01/21 07:59:29;;;;;;;81.13;19.40;;;;;;;;;;5052455;28;20210;-70
2023/01/21 08:01:56;;;;;;;80.47;18.13;;;;;;;;;;5053076;28;20205;-69
2023/01/21 08:04:24;;;;;;;82.05;19.60;;;;;;;;;;5053184;28;20724;-69
2023/01/21 08:06:55;;;;;;;83.43;19.40;;;;;;;;;;5052863;28;20882;-68
2023/01/21 08:09:22;;;;;;;78.82;19.80;;;;;;;;;;5052435;28;20206;-69
2023/01/21 08:11:49;;;;;;;81.75;19.73;;;;;;;;;;5052884;28;20716;-69
2023/01/21 08:14:18;;;;;;;82.80;19.65;;;;;;;;;;5052838;28;20229;-69
2023/01/21 08:16:45;;;;;;;82.38;18.88;;;;;;;;;;5052782;28;20202;-69
2023/01/21 08:19:12;;;;;;;79.05;19.75;;;;;;;;;;5051145;28;20208;-68
2023/01/21 08:21:39;;;;;;;79.55;19.10;;;;;;;;;;5052682;28;20213;-69
2023/01/21 08:24:07;;;;;;;83.88;19.88;;;;;;;;;;5052598;28;20733;-69
2023/01/21 08:26:34;;;;;;;81.07;20.15;;;;;;;;;;5052693;28;20591;-69
2023/01/21 08:29:01;;;;;;;83.53;20.45;;;;;;;;;;5052023;28;20205;-69
2023/01/21 08:31:29;;;;;;;87.70;22.67;;;;;;;;;;5052497;28;20213;-70
2023/01/21 08:33:57;;;;;;;83.82;22.17;;;;;;;;;;5052370;28;20244;-69
2023/01/21 08:36:24;;;;;;;90.93;23.38;;;;;;;;;;5052607;28;20210;-69
2023/01/21 08:38:53;;;;;;;91.50;24.98;;;;;;;;;;5051935;28;20776;-69
2023/01/21 08:41:20;;;;;;;93.70;25.30;;;;;;;;;;5052463;28;20210;-69
2023/01/21 08:43:47;;;;;;;91.95;25.25;;;;;;;;;;5052495;28;20595;-68
2023/01/21 08:46:15;;;;;;;91.50;24.50;;;;;;;;;;5052546;28;20234;-69
2023/01/21 08:48:43;;;;;;;92.00;24.92;;;;;;;;;;5051624;28;20212;-69
2023/01/21 08:51:10;;;;;;;91.00;25.05;;;;;;;;;;5052609;28;20217;-69
2023/01/21 08:53:37;;;;;;;90.90;24.05;;;;;;;;;;5052141;28;20255;-69
2023/01/21 08:56:05;;;;;;;84.50;21.40;;;;;;;;;;5052179;28;20212;-70
2023/01/21 08:58:32;;;;;;;96.68;25.75;;;;;;;;;;5051601;28;20293;-69
2023/01/21 09:01:00;;;;;;;88.55;22.50;;;;;;;;;;5051837;28;20211;-69
2023/01/21 09:03:28;;;;;;;88.32;23.25;;;;;;;;;;5052028;28;20236;-69
2023/01/21 09:06:00;;;;;;;89.97;22.58;;;;;;;;;;5052016;28;20589;-69
2023/01/21 09:08:27;;;;;;;90.60;23.25;;;;;;;;;;5051891;28;20222;-69
2023/01/21 09:11:04;;;;;;;85.28;20.02;;;;;;;;;;5051476;28;20215;-68
2023/01/21 09:13:32;;;;;;;89.78;24.85;;;;;;;;;;5051802;28;20279;-70
2023/01/21 09:15:59;;;;;;;87.80;21.52;;;;;;;;;;5051987;28;20531;-69
2023/01/21 09:18:26;;;;;;;90.63;23.27;;;;;;;;;;5051613;28;20216;-69
2023/01/21 09:20:53;;;;;;;88.97;23.88;;;;;;;;;;5051309;28;20209;-69
2023/01/21 09:23:25;;;;;;;88.45;22.60;;;;;;;;;;5051650;28;20234;-69
2023/01/21 09:25:52;;;;;;;87.10;23.23;;;;;;;;;;5051499;28;20214;-68
2023/01/21 09:28:20;;;;;;;87.68;21.33;;;;;;;;;;5051751;28;20205;-69
2023/01/21 09:30:47;;;;;;;84.43;20.10;;;;;;;;;;5050689;28;20207;-69
2023/01/21 09:33:14;;;;;;;90.60;23.70;;;;;;;;;;5051880;28;20253;-69
2023/01/21 09:35:41;;;;;;;83.63;20.08;;;;;;;;;;5051666;28;20215;-68
2023/01/21 09:38:08;;;;;;;89.43;22.23;;;;;;;;;;5051521;28;20202;-69
2023/01/21 09:40:37;;;;;;;86.68;21.13;;;;;;;;;;5051292;28;20222;-70
2023/01/21 09:43:12;;;;;;;91.28;21.58;;;;;;;;;;5051616;28;20313;-69
2023/01/21 09:45:39;;;;;;;88.90;23.77;;;;;;;;;;5051757;28;20211;-69
2023/01/21 09:48:07;;;;;;;84.55;21.70;;;;;;;;;;5051412;28;20234;-69
2023/01/21 09:50:35;;;;;;;83.03;20.40;;;;;;;;;;5050994;28;20206;-70
2023/01/21 09:53:06;;;;;;;84.75;20.60;;;;;;;;;;5051851;28;20222;-70
2023/01/21 09:55:36;;;;;;;78.40;18.13;;;;;;;;;;5051711;28;20212;-69
2023/01/21 09:58:16;;;;;;;78.90;18.42;;;;;;;;;;5051530;28;20208;-68
2023/01/21 10:00:46;;;;;;;92.05;20.52;;;;;;;;;;5050821;28;20588;-69
2023/01/21 10:03:17;;;;;;;87.50;20.08;;;;;;;;;;5051358;28;20242;-69
2023/01/21 10:05:59;;;;;;;84.57;19.70;;;;;;;;;;5051636;28;20210;-69
2023/01/21 10:08:32;;;;;;;81.60;19.20;;;;;;;;;;5038670;28;20236;-68
2023/01/21 10:11:06;;;;;;;83.22;18.40;;;;;;;;;;5051451;28;20209;-69
2023/01/21 10:13:43;;;;;;;82.38;19.40;;;;;;;;;;5051341;28;20225;-68
2023/01/21 10:16:13;;;;;;;81.03;19.27;;;;;;;;;;5051578;28;20599;-69
2023/01/21 10:18:42;;;;;;;86.80;20.77;;;;;;;;;;5050710;28;20206;-69
2023/01/21 10:21:14;;;;;;;86.82;20.35;;;;;;;;;;5051389;28;20206;-68
2023/01/21 10:23:43;;;;;;;87.35;21.30;;;;;;;;;;5051417;28;20602;-70
2023/01/21 10:26:11;;;;;;;83.75;20.27;;;;;;;;;;5051035;28;20211;-69
2023/01/21 10:28:39;;;;;;;82.68;18.90;;;;;;;;;;5050539;28;20579;-68
2023/01/21 10:31:12;;;;;;;86.20;21.77;;;;;;;;;;5051137;28;20212;-69
2023/01/21 10:33:39;;;;;;;87.05;20.63;;;;;;;;;;5051195;28;20242;-70
2023/01/21 10:36:14;;;;;;;83.78;20.10;;;;;;;;;;5051052;28;20210;-69
2023/01/21 10:38:44;;;;;;;91.45;21.73;;;;;;;;;;5050205;28;20205;-69
2023/01/21 10:41:19;;;;;;;84.95;20.02;;;;;;;;;;5051417;28;20444;-69
2023/01/21 10:43:49;;;;;;;82.57;18.75;;;;;;;;;;5053051;28;20230;-69
2023/01/21 10:46:21;;;;;;;86.50;20.98;;;;;;;;;;5054595;28;20207;-69
2023/01/21 10:48:51;;;;;;;82.28;19.88;;;;;;;;;;5053942;28;20210;-68
2023/01/21 10:51:21;;;;;;;82.47;20.50;;;;;;;;;;5054467;28;20205;-69
2023/01/21 10:53:51;;;;;;;82.57;20.55;;;;;;;;;;5054891;28;20229;-69
2023/01/21 10:56:21;;;;;;;81.90;20.30;;;;;;;;;;5054516;28;20202;-69
2023/01/21 10:58:50;;;;;;;80.05;20.45;;;;;;;;;;5053451;28;20206;-69
2023/01/21 11:01:21;;;;;;;74.40;13.90;;;;;;;;;;5054376;28;20644;-69
2023/01/21 11:03:50;;;;;;;79.22;19.67;;;;;;;;;;5054110;28;20321;-69
2023/01/21 11:06:19;;;;;;;82.75;19.80;;;;;;;;;;5054403;28;20209;-69
2023/01/21 11:08:47;;;;;;;83.80;19.67;;;;;;;;;;5053350;28;20203;-68
2023/01/21 11:11:15;;;;;;;79.70;17.50;;;;;;;;;;5054170;28;20205;-70
2023/01/21 11:13:42;;;;;;;84.72;17.15;;;;;;;;;;5053983;28;20612;-69
2023/01/21 11:16:09;;;;;;;83.13;19.50;;;;;;;;;;5054131;28;20206;-68
2023/01/21 11:18:38;;;;;;;79.25;18.52;;;;;;;;;;5053162;28;20217;-70
2023/01/21 11:21:14;;;;;;;82.55;17.65;;;;;;;;;;5054277;28;20345;-68
2023/01/21 11:23:42;;;;;;;76.88;17.33;;;;;;;;;;5053992;28;20226;-69
2023/01/21 11:26:17;;;;;;;79.30;17.45;;;;;;;;;;5054021;28;20220;-69
2023/01/21 11:28:44;;;;;;;79.20;17.40;;;;;;;;;;5052941;28;20234;-68
2023/01/21 11:31:13;;;;;;;81.55;17.95;;;;;;;;;;5053750;28;20206;-69
2023/01/21 11:33:42;;;;;;;75.78;16.48;;;;;;;;;;5053809;28;20224;-69
2023/01/21 11:36:13;;;;;;;78.72;17.20;;;;;;;;;;5053826;28;20239;-69
2023/01/21 11:38:40;;;;;;;76.68;16.25;;;;;;;;;;5053444;28;20566;-69
2023/01/21 11:41:15;;;;;;;78.50;17.55;;;;;;;;;;5053516;28;20213;-69
2023/01/21 11:43:43;;;;;;;76.60;17.77;;;;;;;;;;5053410;28;20227;-69
2023/01/21 11:46:26;;;;;;;79.13;17.35;;;;;;;;;;5053472;28;20701;-69
2023/01/21 11:48:56;;;;;;;80.15;15.68;;;;;;;;;;5052763;28;20242;-69
2023/01/21 11:51:23;;;;;;;78.75;16.80;;;;;;;;;;5053345;28;20229;-69
2023/01/21 11:54:06;;;;;;;74.93;15.07;;;;;;;;;;5053468;28;20313;-69
2023/01/21 11:56:33;;;;;;;76.75;16.48;;;;;;;;;;5053799;28;20202;-69
2023/01/21 11:59:01;;;;;;;77.32;15.95;;;;;;;;;;5052551;28;20296;-69
2023/01/21 12:01:28;;;;;;;75.72;16.52;;;;;;;;;;5053188;28;20203;-69
2023/01/21 12:03:59;;;;;;;80.07;16.65;;;;;;;;;;5053056;28;20225;-69
2023/01/21 12:06:29;;;;;;;80.97;17.50;;;;;;;;;;5053064;28;20245;-69
2023/01/21 12:08:58;;;;;;;81.15;16.38;;;;;;;;;;5052295;28;20720;-68
2023/01/21 12:11:27;;;;;;;81.25;17.98;;;;;;;;;;5053107;28;20213;-68
2023/01/21 12:13:58;;;;;;;83.07;18.38;;;;;;;;;;5053304;28;20234;-68
2023/01/21 12:16:31;;;;;;;79.53;16.05;;;;;;;;;;5052960;28;20211;-68
2023/01/21 12:19:23;;;;;;;78.78;17.65;;;;;;;;;;5052052;28;20206;-69
2023/01/21 12:22:00;;;;;;;78.97;17.92;;;;;;;;;;5052878;28;20211;-69
2023/01/21 12:24:36;;;;;;;81.15;17.05;;;;;;;;;;5052799;28;20603;-69
2023/01/21 12:27:10;;;;;;;83.82;18.13;;;;;;;;;;5052464;28;20246;-69
2023/01/21 12:29:43;;;;;;;78.80;16.90;;;;;;;;;;5051894;28;20234;-69
2023/01/21 12:32:12;;;;;;;74.90;16.00;;;;;;;;;;5052609;28;20210;-69
2023/01/21 12:34:44;;;;;;;79.97;17.48;;;;;;;;;;5052629;28;20299;-69
2023/01/21 12:37:14;;;;;;;77.15;17.20;;;;;;;;;;5052601;28;20206;-69
2023/01/21 12:39:42;;;;;;;77.80;16.38;;;;;;;;;;5051817;28;20576;-69
2023/01/21 12:42:12;;;;;;;77.93;16.67;;;;;;;;;;5052680;28;20277;-70
2023/01/21 12:44:42;;;;;;;75.68;14.43;;;;;;;;;;5052736;28;20210;-70
2023/01/21 12:47:15;;;;;;;75.97;16.38;;;;;;;;;;5052469;28;20232;-69
2023/01/21 12:50:00;;;;;;;77.20;15.20;;;;;;;;;;5051781;28;20202;-70
2023/01/21 12:52:30;;;;;;;77.53;17.58;;;;;;;;;;5051815;28;20238;-70
2023/01/21 12:54:59;;;;;;;79.25;16.70;;;;;;;;;;5052676;28;20211;-69
2023/01/21 12:57:29;;;;;;;82.18;17.13;;;;;;;;;;5052624;28;20205;-69
2023/01/21 12:59:59;;;;;;;75.28;15.63;;;;;;;;;;5051489;28;20206;-69
2023/01/21 13:02:30;;;;;;;77.65;16.48;;;;;;;;;;5052139;28;20234;-69
2023/01/21 13:04:59;;;;;;;79.03;17.15;;;;;;;;;;5052530;28;20212;-69
2023/01/21 13:07:30;;;;;;;79.22;17.65;;;;;;;;;;5052368;28;20318;-69
2023/01/21 13:10:02;;;;;;;81.07;18.73;;;;;;;;;;5051588;28;20214;-71
2023/01/21 13:12:31;;;;;;;79.00;17.55;;;;;;;;;;5052471;28;20226;-69
2023/01/21 13:15:00;;;;;;;84.88;18.50;;;;;;;;;;5052020;28;20225;-69
2023/01/21 13:17:29;;;;;;;78.95;18.17;;;;;;;;;;5052466;28;20198;-69
2023/01/21 13:19:58;;;;;;;81.53;19.00;;;;;;;;;;5051540;28;20202;-71
2023/01/21 13:22:37;;;;;;;78.57;18.23;;;;;;;;;;5051980;28;20233;-68
2023/01/21 13:25:10;;;;;;;77.07;16.63;;;;;;;;;;5051561;28;20599;-68
2023/01/21 13:27:39;;;;;;;81.95;17.45;;;;;;;;;;5051550;28;20717;-68
2023/01/21 13:30:12;;;;;;;78.05;18.27;;;;;;;;;;5051129;28;20589;-69
2023/01/21 13:32:43;;;;;;;76.57;15.95;;;;;;;;;;5051924;28;20234;-67
2023/01/21 13:35:15;;;;;;;84.15;16.88;;;;;;;;;;5051690;28;20232;-68
2023/01/21 13:37:48;;;;;;;78.20;17.08;;;;;;;;;;5051600;28;20222;-69
2023/01/21 13:40:20;;;;;;;80.05;16.48;;;;;;;;;;5050996;28;20207;-67
2023/01/21 13:42:51;;;;;;;80.45;18.25;;;;;;;;;;5051646;28;20230;-68
2023/01/21 13:45:23;;;;;;;76.15;16.40;;;;;;;;;;5051693;28;20207;-69
2023/01/21 13:47:57;;;;;;;77.63;15.98;;;;;;;;;;5051570;28;20228;-69
2023/01/21 13:50:28;;;;;;;76.75;16.23;;;;;;;;;;5050732;28;20217;-69
2023/01/21 13:53:03;;;;;;;78.35;17.38;;;;;;;;;;5051653;28;20228;-69
2023/01/21 13:55:37;;;;;;;77.82;16.23;;;;;;;;;;5051562;28;20206;-68
2023/01/21 13:58:07;;;;;;;74.57;15.50;;;;;;;;;;5051519;28;20198;-69
2023/01/21 14:00:36;;;;;;;77.07;14.82;;;;;;;;;;5050733;28;20215;-69
2023/01/21 14:03:08;;;;;;;78.88;16.20;;;;;;;;;;5051211;28;20225;-69
2023/01/21 14:05:38;;;;;;;78.63;15.82;;;;;;;;;;5051458;28;20584;-69
2023/01/21 14:08:09;;;;;;;77.63;15.88;;;;;;;;;;5051250;28;20229;-69
2023/01/21 14:10:40;;;;;;;80.03;16.70;;;;;;;;;;5050985;28;20207;-68
2023/01/21 14:13:23;;;;;;;83.38;18.10;;;;;;;;;;5051139;28;20744;-69
2023/01/21 14:15:55;;;;;;;93.70;22.67;;;;;;;;;;5051442;28;20702;-68
2023/01/21 14:18:34;;;;;;;71.50;13.60;;;;;;;;;;5054498;28;20205;-69
2023/01/21 14:21:14;;;;;;;74.25;14.90;;;;;;;;;;5055146;28;20222;-69
2023/01/21 14:23:51;;;;;;;74.75;14.05;;;;;;;;;;5054761;28;20257;-68
2023/01/21 14:26:23;;;;;;;73.00;14.15;;;;;;;;;;5055034;28;20711;-69
2023/01/21 14:28:54;;;;;;;73.15;14.40;;;;;;;;;;5054283;28;20229;-69
2023/01/21 14:31:22;;;;;;;72.93;14.00;;;;;;;;;;5055112;28;20576;-68